createdAt,value
2023-03-26T00:01:37.062Z,1.00
2023-03-26T00:04:05.732Z,0.90
2023-03-26T00:06:36.699Z,1.00
2023-03-26T00:09:04.158Z,0.90
2023-03-26T00:11:30.937Z,0.90
2023-03-26T00:13:57.834Z,1.10
2023-03-26T00:16:26.933Z,1.20
2023-03-26T00:18:53.528Z,1.20
2023-03-26T00:21:21.464Z,1.00
2023-03-26T00:23:49.151Z,1.00
2023-03-26T00:26:17.568Z,0.80
2023-03-26T00:28:44.706Z,1.17
2023-03-26T00:31:15.052Z,0.70
2023-03-26T00:33:42.007Z,1.07
2023-03-26T00:36:17.585Z,0.87
2023-03-26T00:38:45.070Z,1.03
2023-03-26T00:41:23.034Z,0.93
2023-03-26T00:43:51.994Z,1.03
2023-03-26T00:46:18.601Z,1.10
2023-03-26T00:48:46.204Z,1.30
2023-03-26T00:51:15.519Z,1.20
2023-03-26T00:53:43.305Z,0.87
2023-03-26T00:56:10.255Z,0.87
2023-03-26T00:58:37.183Z,0.80
2023-03-26T01:01:05.897Z,0.90
2023-03-26T01:03:33.925Z,1.10
2023-03-26T01:06:04.876Z,1.00
2023-03-26T01:08:32.833Z,1.03
2023-03-26T01:11:07.151Z,1.07
2023-03-26T01:13:36.283Z,0.80
2023-03-26T01:16:04.112Z,0.80
2023-03-26T01:18:33.961Z,0.87
2023-03-26T01:21:05.386Z,1.27
2023-03-26T01:23:37.475Z,0.83
2023-03-26T01:26:27.345Z,0.60
2023-03-26T01:28:55.543Z,0.73
2023-03-26T01:31:29.838Z,1.13
2023-03-26T01:34:02.794Z,0.80
2023-03-26T01:36:52.589Z,0.63
2023-03-26T01:39:28.670Z,0.80
2023-03-26T01:41:58.196Z,0.67
2023-03-26T01:44:34.533Z,0.90
2023-03-26T01:47:01.363Z,0.60
2023-03-26T01:49:28.995Z,0.70
2023-03-26T01:51:56.828Z,0.97
2023-03-26T01:54:25.374Z,0.70
2023-03-26T01:56:58.811Z,1.07
2023-03-26T01:59:25.394Z,0.77
2023-03-26T02:02:08.951Z,0.80
2023-03-26T02:04:44.804Z,0.90
2023-03-26T02:07:38.039Z,0.87
2023-03-26T02:10:13.768Z,0.50
2023-03-26T02:12:41.312Z,0.87
2023-03-26T02:15:08.194Z,0.70
2023-03-26T02:17:35.310Z,0.80
2023-03-26T02:20:05.968Z,0.90
2023-03-26T02:22:40.753Z,0.70
2023-03-26T02:25:09.866Z,0.60
2023-03-26T02:27:36.821Z,0.70
2023-03-26T02:30:07.920Z,1.00
2023-03-26T02:32:35.098Z,0.80
2023-03-26T02:35:02.102Z,0.70
2023-03-26T02:37:30.429Z,0.70
2023-03-26T02:40:11.036Z,0.70
2023-03-26T02:42:40.795Z,0.70
2023-03-26T02:45:07.693Z,0.80
2023-03-26T02:47:34.244Z,0.53
2023-03-26T02:50:19.618Z,0.77
2023-03-26T02:53:07.956Z,0.63
2023-03-26T02:55:38.443Z,0.80
2023-03-26T02:58:06.291Z,1.00
2023-03-26T03:00:36.594Z,0.80
2023-03-26T03:03:24.321Z,0.73
2023-03-26T03:05:59.626Z,0.80
2023-03-26T03:08:55.409Z,1.00
2023-03-26T03:11:37.582Z,0.87
2023-03-26T03:14:05.327Z,0.60
2023-03-26T03:16:33.055Z,0.80
2023-03-26T03:19:08.643Z,0.80
2023-03-26T03:21:40.275Z,0.87
2023-03-26T03:24:08.128Z,0.90
2023-03-26T03:26:41.283Z,0.80
2023-03-26T03:29:19.496Z,0.90
2023-03-26T03:31:46.681Z,0.90
2023-03-26T03:34:28.501Z,1.10
2023-03-26T03:36:55.338Z,0.83
2023-03-26T03:39:31.531Z,1.07
2023-03-26T03:41:58.068Z,0.83
2023-03-26T03:44:24.646Z,1.00
2023-03-26T03:46:54.080Z,0.90
2023-03-26T03:49:21.951Z,1.10
2023-03-26T03:51:48.813Z,1.03
2023-03-26T03:54:24.695Z,1.20
2023-03-26T03:57:03.905Z,0.90
2023-03-26T04:00:05.721Z,1.10
2023-03-26T04:02:43.152Z,1.10
2023-03-26T04:05:11.747Z,0.97
2023-03-26T04:07:45.292Z,1.20
2023-03-26T04:10:27.119Z,1.20
2023-03-26T04:13:19.703Z,1.43
2023-03-26T04:15:55.694Z,1.10
2023-03-26T04:18:23.942Z,1.13
2023-03-26T04:20:50.855Z,1.20
2023-03-26T04:23:26.654Z,1.10
2023-03-26T04:26:03.467Z,1.20
2023-03-26T04:28:56.728Z,1.20
2023-03-26T04:31:29.294Z,1.20
2023-03-26T04:34:01.547Z,1.00
2023-03-26T04:36:30.147Z,1.00
2023-03-26T04:38:58.433Z,1.07
2023-03-26T04:41:44.983Z,1.20
2023-03-26T04:44:17.222Z,1.30
2023-03-26T04:46:55.795Z,1.00
2023-03-26T04:49:30.276Z,1.20
2023-03-26T04:51:56.957Z,1.00
2023-03-26T04:54:44.785Z,0.97
2023-03-26T04:57:33.844Z,1.10
2023-03-26T05:00:19.487Z,1.13
2023-03-26T05:02:56.019Z,1.17
2023-03-26T05:05:23.724Z,1.20
2023-03-26T05:07:50.611Z,1.17
2023-03-26T05:10:20.582Z,1.10
2023-03-26T05:12:54.674Z,1.20
2023-03-26T05:15:31.757Z,1.00
2023-03-26T05:18:09.119Z,1.27
2023-03-26T05:20:49.326Z,1.90
2023-03-26T05:23:16.026Z,1.40
2023-03-26T05:25:47.260Z,1.33
2023-03-26T05:28:23.300Z,1.60
2023-03-26T05:30:56.882Z,1.00
2023-03-26T05:33:27.440Z,1.90
2023-03-26T05:36:09.205Z,1.47
2023-03-26T05:38:36.198Z,1.47
2023-03-26T05:41:06.332Z,1.27
2023-03-26T05:43:36.563Z,1.93
2023-03-26T05:46:16.081Z,1.50
2023-03-26T05:48:43.679Z,1.80
2023-03-26T05:51:12.297Z,2.23
2023-03-26T05:53:42.411Z,1.57
2023-03-26T05:56:40.860Z,1.83
2023-03-26T05:59:27.762Z,1.70
2023-03-26T06:02:26.806Z,1.90
2023-03-26T06:05:12.523Z,1.97
2023-03-26T06:07:56.354Z,2.37
2023-03-26T06:10:24.125Z,2.23
2023-03-26T06:12:50.912Z,2.10
2023-03-26T06:15:18.442Z,2.80
2023-03-26T06:18:07.580Z,2.50
2023-03-26T06:21:09.352Z,2.40
2023-03-26T06:23:56.501Z,2.30
2023-03-26T06:26:41.571Z,2.50
2023-03-26T06:29:17.063Z,2.50
2023-03-26T06:32:20.132Z,2.30
2023-03-26T06:35:16.566Z,2.33
2023-03-26T06:37:43.726Z,2.30
2023-03-26T06:40:10.548Z,2.80
2023-03-26T06:43:09.892Z,2.60
2023-03-26T06:46:03.312Z,2.00
2023-03-26T06:48:38.938Z,2.70
2023-03-26T06:51:23.844Z,2.50
2023-03-26T06:54:09.171Z,2.60
2023-03-26T06:56:51.976Z,2.10
2023-03-26T06:59:24.584Z,2.30
2023-03-26T07:02:11.067Z,2.00
2023-03-26T07:04:56.221Z,1.77
2023-03-26T07:07:57.906Z,2.00
2023-03-26T07:10:43.367Z,1.93
2023-03-26T07:13:10.328Z,1.80
2023-03-26T07:15:57.118Z,1.83
2023-03-26T07:18:55.269Z,1.77
2023-03-26T07:21:25.292Z,1.87
2023-03-26T07:23:51.958Z,1.70
2023-03-26T07:26:46.182Z,2.20
2023-03-26T07:29:22.904Z,2.03
2023-03-26T07:32:18.475Z,1.87
2023-03-26T07:35:07.296Z,1.80
2023-03-26T07:38:11.935Z,2.60
2023-03-26T07:41:02.529Z,2.50
2023-03-26T07:44:16.334Z,2.20
2023-03-26T07:46:57.904Z,2.10
2023-03-26T07:49:39.193Z,15.13
2023-03-26T07:52:19.631Z,8.30
2023-03-26T07:55:13.804Z,3.57
2023-03-26T07:58:17.675Z,2.37
2023-03-26T08:01:16.517Z,1.80
2023-03-26T08:04:24.185Z,3.37
2023-03-26T08:07:32.149Z,2.73
2023-03-26T08:10:38.308Z,2.07
2023-03-26T08:13:06.131Z,2.13
2023-03-26T08:15:32.736Z,4.43
2023-03-26T08:18:20.101Z,1.60
2023-03-26T08:20:49.042Z,1.87
2023-03-26T08:23:25.174Z,2.33
2023-03-26T08:26:10.612Z,1.50
2023-03-26T08:28:40.006Z,2.43
2023-03-26T08:31:08.045Z,2.30
2023-03-26T08:33:38.275Z,2.30
2023-03-26T08:36:05.932Z,1.90
2023-03-26T08:38:32.521Z,1.83
2023-03-26T08:41:02.151Z,1.60
2023-03-26T08:43:28.587Z,1.97
2023-03-26T08:46:19.577Z,2.20
2023-03-26T08:48:46.216Z,1.80
2023-03-26T08:51:18.906Z,1.53
2023-03-26T08:53:54.607Z,1.80
2023-03-26T08:56:30.005Z,1.33
2023-03-26T08:59:01.488Z,2.40
2023-03-26T09:01:27.986Z,2.07
2023-03-26T09:04:06.717Z,2.00
2023-03-26T09:06:33.325Z,2.13
2023-03-26T09:08:59.777Z,1.60
2023-03-26T09:11:29.327Z,1.67
2023-03-26T09:13:58.834Z,1.37
2023-03-26T09:16:37.412Z,1.60
2023-03-26T09:19:04.886Z,1.57
2023-03-26T09:21:31.414Z,1.23
2023-03-26T09:24:12.338Z,1.40
2023-03-26T09:26:47.927Z,1.40
2023-03-26T09:29:20.586Z,1.23
2023-03-26T09:32:07.533Z,1.30
2023-03-26T09:34:37.067Z,1.20
2023-03-26T09:37:05.831Z,1.73
2023-03-26T09:39:36.673Z,1.40
2023-03-26T09:42:04.931Z,1.57
2023-03-26T09:44:43.602Z,1.40
2023-03-26T09:47:28.755Z,1.60
2023-03-26T09:50:15.804Z,1.60
2023-03-26T09:52:42.456Z,1.57
2023-03-26T09:55:22.652Z,1.53
2023-03-26T09:58:07.925Z,1.50
2023-03-26T10:00:34.507Z,1.70
2023-03-26T10:03:04.233Z,1.53
2023-03-26T10:05:46.195Z,1.60
2023-03-26T10:08:14.476Z,1.50
2023-03-26T10:10:54.584Z,1.80
2023-03-26T10:13:40.785Z,2.03
2023-03-26T10:16:29.711Z,2.10
2023-03-26T10:19:17.141Z,1.60
2023-03-26T10:22:02.180Z,1.87
2023-03-26T10:24:34.804Z,2.73
2023-03-26T10:27:09.364Z,1.70
2023-03-26T10:29:50.054Z,1.60
2023-03-26T10:32:22.761Z,1.60
2023-03-26T10:35:06.425Z,1.30
2023-03-26T10:37:58.067Z,1.20
2023-03-26T10:40:34.113Z,1.47
2023-03-26T10:43:12.892Z,1.93
2023-03-26T10:45:41.996Z,1.50
2023-03-26T10:48:17.657Z,1.90
2023-03-26T10:50:53.590Z,1.50
2023-03-26T10:53:26.130Z,1.73
2023-03-26T10:55:54.908Z,1.80
2023-03-26T10:58:26.066Z,1.50
2023-03-26T11:00:58.809Z,1.70
2023-03-26T11:03:44.689Z,2.00
2023-03-26T11:06:14.156Z,2.20
2023-03-26T11:08:50.617Z,3.77
2023-03-26T11:11:17.124Z,2.00
2023-03-26T11:13:43.604Z,1.60
2023-03-26T11:16:25.069Z,1.90
2023-03-26T11:19:11.720Z,1.40
2023-03-26T11:21:47.425Z,1.60
2023-03-26T11:24:32.333Z,1.40
2023-03-26T11:27:15.452Z,2.00
2023-03-26T11:29:53.532Z,1.50
2023-03-26T11:32:23.242Z,1.60
2023-03-26T11:34:58.632Z,1.40
2023-03-26T11:37:37.443Z,1.70
2023-03-26T11:40:07.570Z,1.33
2023-03-26T11:42:34.598Z,1.70
2023-03-26T11:45:04.787Z,1.80
2023-03-26T11:47:40.551Z,1.50
2023-03-26T11:50:08.357Z,1.40
2023-03-26T11:52:36.032Z,1.60
2023-03-26T11:55:03.228Z,1.73
2023-03-26T11:57:33.254Z,1.73
2023-03-26T12:00:16.528Z,1.60
2023-03-26T12:02:43.766Z,1.43
2023-03-26T12:05:18.117Z,1.40
2023-03-26T12:07:47.745Z,1.67
2023-03-26T12:10:32.903Z,1.80
2023-03-26T12:13:01.953Z,1.57
2023-03-26T12:15:29.210Z,1.20
2023-03-26T12:17:56.992Z,1.57
2023-03-26T12:20:24.843Z,1.50
2023-03-26T12:22:53.076Z,1.40
2023-03-26T12:25:24.618Z,1.37
2023-03-26T12:28:02.540Z,1.50
2023-03-26T12:30:31.058Z,1.50
2023-03-26T12:33:00.878Z,1.30
2023-03-26T12:35:29.383Z,1.20
2023-03-26T12:38:13.720Z,1.57
2023-03-26T12:40:42.487Z,1.30
2023-03-26T12:44:54.606Z,1.13
2023-03-26T12:47:58.655Z,1.60
2023-03-26T12:49:26.704Z,1.30
2023-03-26T12:51:59.661Z,1.53
2023-03-26T12:54:45.675Z,1.53
2023-03-26T12:57:16.959Z,1.20
2023-03-26T12:59:53.594Z,1.30
2023-03-26T13:02:20.212Z,1.30
2023-03-26T13:05:05.116Z,1.20
2023-03-26T13:07:34.064Z,1.30
2023-03-26T13:10:19.638Z,1.23
2023-03-26T13:12:49.242Z,1.37
2023-03-26T13:15:38.900Z,1.40
2023-03-26T13:18:24.034Z,1.40
2023-03-26T13:20:55.908Z,1.87
2023-03-26T13:23:38.992Z,1.67
2023-03-26T13:26:24.101Z,1.33
2023-03-26T13:29:19.576Z,1.37
2023-03-26T13:31:56.058Z,1.30
2023-03-26T13:34:33.524Z,1.67
2023-03-26T13:37:04.267Z,1.10
2023-03-26T13:39:50.211Z,1.37
2023-03-26T13:42:36.507Z,1.40
2023-03-26T13:45:21.782Z,1.50
2023-03-26T13:47:50.364Z,1.30
2023-03-26T13:50:26.143Z,1.30
2023-03-26T13:53:05.032Z,1.40
2023-03-26T13:55:37.370Z,1.70
2023-03-26T13:58:13.657Z,1.50
2023-03-26T14:01:01.904Z,1.47
2023-03-26T14:03:47.233Z,1.50
2023-03-26T14:06:33.998Z,1.43
2023-03-26T14:09:24.550Z,1.40
2023-03-26T14:11:51.128Z,2.00
2023-03-26T14:14:37.981Z,1.50
2023-03-26T14:17:26.665Z,1.60
2023-03-26T14:19:53.176Z,1.93
2023-03-26T14:22:37.031Z,1.40
2023-03-26T14:25:22.236Z,1.33
2023-03-26T14:27:49.023Z,1.57
2023-03-26T14:30:18.450Z,1.50
2023-03-26T14:32:45.003Z,2.00
2023-03-26T14:35:21.044Z,1.80
2023-03-26T14:38:07.162Z,1.40
2023-03-26T14:40:33.690Z,1.70
2023-03-26T14:43:29.268Z,1.90
2023-03-26T14:45:58.803Z,1.33
2023-03-26T14:48:28.375Z,1.70
2023-03-26T14:51:10.030Z,1.80
2023-03-26T14:53:38.239Z,1.97
2023-03-26T14:56:07.594Z,1.63
2023-03-26T14:58:52.507Z,1.50
2023-03-26T15:01:37.599Z,2.00
2023-03-26T15:04:19.635Z,1.57
2023-03-26T15:07:04.840Z,1.57
2023-03-26T15:09:50.360Z,1.73
2023-03-26T15:12:22.910Z,1.50
2023-03-26T15:15:08.125Z,1.40
2023-03-26T15:17:37.522Z,1.40
2023-03-26T15:20:04.178Z,1.60
2023-03-26T15:22:40.388Z,1.60
2023-03-26T15:25:15.984Z,1.50
2023-03-26T15:27:50.312Z,1.23
2023-03-26T15:30:16.831Z,1.60
2023-03-26T15:33:06.801Z,1.80
2023-03-26T15:35:39.378Z,1.63
2023-03-26T15:38:20.862Z,1.20
2023-03-26T15:41:06.166Z,1.80
2023-03-26T15:44:06.989Z,1.20
2023-03-26T15:46:59.718Z,2.03
2023-03-26T15:49:44.732Z,1.57
2023-03-26T15:52:15.277Z,1.60
2023-03-26T15:54:47.572Z,1.80
2023-03-26T15:57:32.319Z,1.70
2023-03-26T16:00:15.228Z,1.90
2023-03-26T16:02:42.399Z,2.00
2023-03-26T16:05:21.380Z,1.60
2023-03-26T16:07:47.960Z,2.00
2023-03-26T16:10:28.007Z,1.70
2023-03-26T16:12:54.772Z,1.73
2023-03-26T16:15:26.520Z,1.70
2023-03-26T16:18:19.588Z,1.40
2023-03-26T16:20:50.955Z,1.50
2023-03-26T16:23:20.522Z,1.40
2023-03-26T16:26:13.690Z,1.70
2023-03-26T16:28:49.340Z,1.57
2023-03-26T16:31:36.689Z,2.03
2023-03-26T16:34:05.329Z,1.63
2023-03-26T16:36:34.866Z,1.50
2023-03-26T16:39:04.882Z,1.70
2023-03-26T16:41:33.139Z,1.70
2023-03-26T16:44:17.465Z,1.50
2023-03-26T16:46:52.078Z,1.60
2023-03-26T16:49:37.429Z,2.30
2023-03-26T16:52:06.758Z,1.70
2023-03-26T16:54:53.053Z,1.30
2023-03-26T16:57:26.701Z,1.70
2023-03-26T17:00:25.592Z,1.80
2023-03-26T17:03:13.086Z,1.70
2023-03-26T17:05:56.612Z,19.70
2023-03-26T17:08:42.656Z,4.73
2023-03-26T17:11:09.200Z,5.07
2023-03-26T17:13:53.633Z,3.50
2023-03-26T17:16:34.238Z,3.80
2023-03-26T17:19:03.968Z,2.40
2023-03-26T17:21:45.965Z,1.97
2023-03-26T17:24:16.408Z,2.10
2023-03-26T17:27:04.525Z,2.27
2023-03-26T17:29:43.562Z,2.00
2023-03-26T17:32:11.466Z,3.23
2023-03-26T17:34:38.010Z,2.60
2023-03-26T17:37:05.921Z,3.80
2023-03-26T17:39:38.600Z,2.47
2023-03-26T17:42:16.605Z,2.57
2023-03-26T17:44:47.638Z,3.20
2023-03-26T17:47:26.754Z,2.37
2023-03-26T17:49:58.154Z,2.10
2023-03-26T17:52:26.181Z,2.43
2023-03-26T17:54:55.289Z,2.30
2023-03-26T17:57:24.778Z,2.30
2023-03-26T17:59:55.713Z,2.20
2023-03-26T18:02:27.876Z,2.13
2023-03-26T18:04:55.587Z,1.93
2023-03-26T18:07:23.054Z,2.20
2023-03-26T18:09:55.365Z,2.10
2023-03-26T18:12:40.859Z,2.00
2023-03-26T18:15:33.877Z,2.27
2023-03-26T18:18:22.338Z,1.97
2023-03-26T18:20:50.240Z,1.90
2023-03-26T18:23:29.516Z,2.03
2023-03-26T18:26:11.349Z,1.60
2023-03-26T18:28:42.211Z,2.20
2023-03-26T18:31:13.988Z,1.90
2023-03-26T18:33:44.545Z,2.43
2023-03-26T18:36:11.676Z,2.17
2023-03-26T18:38:39.498Z,1.90
2023-03-26T18:41:08.362Z,2.00
2023-03-26T18:43:43.840Z,1.60
2023-03-26T18:46:12.261Z,1.87
2023-03-26T18:48:39.120Z,2.20
2023-03-26T18:51:07.136Z,2.33
2023-03-26T18:53:49.247Z,2.13
2023-03-26T18:56:38.917Z,1.90
2023-03-26T18:59:07.082Z,1.60
2023-03-26T19:01:35.347Z,1.40
2023-03-26T19:04:06.022Z,1.97
2023-03-26T19:06:38.159Z,1.93
2023-03-26T19:09:20.093Z,1.53
2023-03-26T19:11:57.181Z,2.13
2023-03-26T19:14:25.242Z,1.83
2023-03-26T19:16:56.368Z,1.77
2023-03-26T19:19:26.478Z,1.83
2023-03-26T19:21:53.002Z,1.90
2023-03-26T19:24:20.723Z,1.50
2023-03-26T19:26:47.866Z,1.77
2023-03-26T19:29:15.507Z,1.67
2023-03-26T19:31:42.434Z,1.80
2023-03-26T19:34:11.947Z,1.90
2023-03-26T19:36:52.179Z,1.90
2023-03-26T19:39:34.721Z,1.60
2023-03-26T19:42:04.651Z,2.10
2023-03-26T19:44:31.338Z,2.00
2023-03-26T19:47:05.883Z,2.03
2023-03-26T19:49:41.321Z,2.13
2023-03-26T19:52:17.639Z,1.70
2023-03-26T19:55:00.227Z,2.00
2023-03-26T19:57:31.980Z,1.90
2023-03-26T19:59:58.884Z,2.00
2023-03-26T20:02:26.096Z,2.37
2023-03-26T20:04:52.923Z,2.00
2023-03-26T20:07:22.076Z,2.33
2023-03-26T20:10:03.125Z,2.70
2023-03-26T20:12:29.669Z,2.47
2023-03-26T20:14:56.203Z,2.60
2023-03-26T20:17:22.726Z,2.53
2023-03-26T20:19:49.239Z,2.50
2023-03-26T20:22:17.236Z,2.40
2023-03-26T20:24:44.934Z,2.47
2023-03-26T20:27:13.317Z,2.57
2023-03-26T20:29:40.975Z,2.63
2023-03-26T20:32:23.608Z,2.70
2023-03-26T20:34:51.535Z,2.20
2023-03-26T20:37:18.360Z,2.80
2023-03-26T20:39:45.766Z,2.80
2023-03-26T20:42:15.449Z,2.60
2023-03-26T20:44:42.668Z,2.67
2023-03-26T20:47:12.706Z,2.70
2023-03-26T20:49:40.316Z,2.90
2023-03-26T20:52:07.038Z,2.60
2023-03-26T20:54:33.694Z,2.87
2023-03-26T20:57:00.409Z,2.70
2023-03-26T20:59:27.806Z,3.13
2023-03-26T21:01:56.400Z,2.93
2023-03-26T21:04:23.130Z,3.30
2023-03-26T21:06:49.741Z,3.30
2023-03-26T21:09:17.854Z,3.13
2023-03-26T21:11:47.584Z,3.30
2023-03-26T21:14:25.145Z,3.47
2023-03-26T21:16:52.619Z,3.27
2023-03-26T21:19:19.300Z,3.43
2023-03-26T21:21:59.126Z,3.60
2023-03-26T21:24:33.892Z,3.43
2023-03-26T21:27:16.937Z,4.53
2023-03-26T21:29:43.673Z,4.00
2023-03-26T21:32:10.697Z,4.10
2023-03-26T21:34:41.956Z,4.33
2023-03-26T21:37:11.669Z,4.40
2023-03-26T21:39:38.679Z,3.90
2023-03-26T21:42:06.147Z,3.90
2023-03-26T21:44:33.441Z,3.93
2023-03-26T21:47:00.376Z,4.00
2023-03-26T21:49:27.209Z,4.27
2023-03-26T21:51:53.950Z,3.80
2023-03-26T21:54:24.954Z,3.57
2023-03-26T21:57:10.039Z,3.60
2023-03-26T21:59:42.389Z,3.80
2023-03-26T22:02:27.928Z,4.07
2023-03-26T22:05:01.047Z,4.27
2023-03-26T22:07:32.580Z,4.27
2023-03-26T22:09:59.110Z,4.30
2023-03-26T22:12:25.686Z,4.70
2023-03-26T22:14:52.575Z,4.57
2023-03-26T22:17:19.380Z,4.60
2023-03-26T22:19:45.940Z,4.90
2023-03-26T22:22:12.554Z,4.30
2023-03-26T22:24:39.118Z,4.50
2023-03-26T22:27:06.266Z,5.03
2023-03-26T22:29:33.423Z,5.53
2023-03-26T22:31:59.989Z,5.03
2023-03-26T22:34:26.578Z,5.37
2023-03-26T22:36:53.336Z,5.00
2023-03-26T22:39:19.938Z,5.63
2023-03-26T22:41:46.501Z,4.90
2023-03-26T22:44:20.200Z,4.63
2023-03-26T22:46:49.429Z,4.63
2023-03-26T22:49:16.584Z,4.50
2023-03-26T22:51:43.401Z,4.43
2023-03-26T22:54:10.063Z,4.07
2023-03-26T22:56:37.236Z,3.37
2023-03-26T22:59:03.921Z,3.70
2023-03-26T23:01:30.673Z,3.63
2023-03-26T23:03:57.932Z,3.70
2023-03-26T23:06:25.220Z,4.00
2023-03-26T23:08:51.896Z,3.57
2023-03-26T23:11:19.140Z,3.80
2023-03-26T23:13:46.114Z,3.73
2023-03-26T23:16:13.114Z,4.63
2023-03-26T23:18:40.056Z,3.77
2023-03-26T23:21:11.715Z,3.87
2023-03-26T23:23:39.784Z,3.60
2023-03-26T23:26:06.977Z,3.37
2023-03-26T23:28:34.318Z,4.17
2023-03-26T23:31:02.291Z,4.40
2023-03-26T23:33:30.489Z,3.30
2023-03-26T23:35:57.867Z,4.40
2023-03-26T23:38:25.315Z,4.13
2023-03-26T23:40:57.235Z,4.67
2023-03-26T23:43:24.783Z,4.17
2023-03-26T23:45:51.670Z,4.70
2023-03-26T23:48:22.388Z,4.70
2023-03-26T23:50:53.168Z,4.20
2023-03-26T23:53:30.759Z,3.90
2023-03-26T23:55:58.047Z,4.20
2023-03-26T23:58:30.192Z,4.10
